createdAt,value
2023-05-22T00:01:44.745Z,10.82
2023-05-22T00:04:21.114Z,8.70
2023-05-22T00:06:50.477Z,12.90
2023-05-22T00:09:18.165Z,11.70
2023-05-22T00:11:45.877Z,8.93
2023-05-22T00:14:13.784Z,11.35
2023-05-22T00:16:41.601Z,11.20
2023-05-22T00:19:13.411Z,9.30
2023-05-22T00:21:41.876Z,12.80
2023-05-22T00:24:11.086Z,11.05
2023-05-22T00:26:38.720Z,13.15
2023-05-22T00:29:06.651Z,10.82
2023-05-22T00:31:34.309Z,20.63
2023-05-22T00:34:02.017Z,11.75
2023-05-22T00:36:30.564Z,7.22
2023-05-22T00:38:58.077Z,9.73
2023-05-22T00:41:27.239Z,11.68
2023-05-22T00:43:54.816Z,10.35
2023-05-22T00:46:22.929Z,9.70
2023-05-22T00:48:52.584Z,8.90
2023-05-22T00:51:21.583Z,8.60
2023-05-22T00:53:49.766Z,10.93
2023-05-22T00:56:18.058Z,10.05
2023-05-22T00:58:46.941Z,9.10
2023-05-22T01:01:15.657Z,13.68
2023-05-22T01:03:45.155Z,12.98
2023-05-22T01:06:12.899Z,10.35
2023-05-22T01:08:41.345Z,14.75
2023-05-22T01:11:11.487Z,10.93
2023-05-22T01:13:43.820Z,10.25
2023-05-22T01:16:31.660Z,13.35
2023-05-22T01:19:02.900Z,11.25
2023-05-22T01:21:36.460Z,14.68
2023-05-22T01:24:33.971Z,12.48
2023-05-22T01:27:28.526Z,14.10
2023-05-22T01:30:04.410Z,13.65
2023-05-22T01:32:34.300Z,12.23
2023-05-22T01:35:03.329Z,9.98
2023-05-22T01:37:31.559Z,9.88
2023-05-22T01:39:59.875Z,11.25
2023-05-22T01:42:27.708Z,10.50
2023-05-22T01:44:55.450Z,12.75
2023-05-22T01:47:23.562Z,15.40
2023-05-22T01:49:52.893Z,16.08
2023-05-22T01:52:26.816Z,18.23
2023-05-22T01:54:58.460Z,13.85
2023-05-22T01:57:28.732Z,18.55
2023-05-22T01:59:59.414Z,11.07
2023-05-22T02:02:27.657Z,14.95
2023-05-22T02:05:00.352Z,12.93
2023-05-22T02:07:29.480Z,15.90
2023-05-22T02:09:58.709Z,10.32
2023-05-22T02:12:27.808Z,12.00
2023-05-22T02:14:56.653Z,12.23
2023-05-22T02:17:26.643Z,19.80
2023-05-22T02:19:54.313Z,14.15
2023-05-22T02:22:23.621Z,12.25
2023-05-22T02:24:51.638Z,11.20
2023-05-22T02:27:19.782Z,12.38
2023-05-22T02:29:47.423Z,15.93
2023-05-22T02:32:15.057Z,15.43
2023-05-22T02:34:42.696Z,18.30
2023-05-22T02:37:13.167Z,13.85
2023-05-22T02:39:42.068Z,10.20
2023-05-22T02:42:09.745Z,15.25
2023-05-22T02:44:37.262Z,9.00
2023-05-22T02:47:04.968Z,16.95
2023-05-22T02:49:32.530Z,11.10
2023-05-22T02:52:00.040Z,10.82
2023-05-22T02:54:27.540Z,10.90
2023-05-22T02:56:56.975Z,12.63
2023-05-22T02:59:24.668Z,8.25
2023-05-22T03:01:54.494Z,13.57
2023-05-22T03:04:22.715Z,11.18
2023-05-22T03:06:50.552Z,12.25
2023-05-22T03:09:18.318Z,9.73
2023-05-22T03:11:45.903Z,16.95
2023-05-22T03:14:14.863Z,14.68
2023-05-22T03:16:42.764Z,10.27
2023-05-22T03:19:10.768Z,10.35
2023-05-22T03:21:38.355Z,10.77
2023-05-22T03:24:06.035Z,10.45
2023-05-22T03:26:33.789Z,12.73
2023-05-22T03:29:01.778Z,10.18
2023-05-22T03:31:31.472Z,12.15
2023-05-22T03:33:59.097Z,14.68
2023-05-22T03:36:26.757Z,13.82
2023-05-22T03:38:54.455Z,13.75
2023-05-22T03:41:22.410Z,11.05
2023-05-22T03:43:50.014Z,12.30
2023-05-22T03:46:17.722Z,11.23
2023-05-22T03:48:46.775Z,16.23
2023-05-22T03:51:14.339Z,14.73
2023-05-22T03:53:41.895Z,12.57
2023-05-22T03:56:09.406Z,12.80
2023-05-22T03:58:36.917Z,13.38
2023-05-22T04:01:04.732Z,10.60
2023-05-22T04:03:32.275Z,9.63
2023-05-22T04:06:01.421Z,11.32
2023-05-22T04:08:28.906Z,12.05
2023-05-22T04:10:56.503Z,11.75
2023-05-22T04:13:23.989Z,12.30
2023-05-22T04:15:52.747Z,9.57
2023-05-22T04:18:20.440Z,12.27
2023-05-22T04:20:48.515Z,11.52
2023-05-22T04:23:17.810Z,17.58
2023-05-22T04:25:48.101Z,15.10
2023-05-22T04:28:17.715Z,14.07
2023-05-22T04:30:45.584Z,10.82
2023-05-22T04:33:13.779Z,10.13
2023-05-22T04:35:42.490Z,13.02
2023-05-22T04:38:10.597Z,10.73
2023-05-22T04:40:39.925Z,8.95
2023-05-22T04:43:07.702Z,12.13
2023-05-22T04:45:35.584Z,10.75
2023-05-22T04:48:03.544Z,7.95
2023-05-22T04:50:32.605Z,15.02
2023-05-22T04:53:04.717Z,11.02
2023-05-22T04:55:33.893Z,10.05
2023-05-22T04:58:03.173Z,6.88
2023-05-22T05:00:30.679Z,10.50
2023-05-22T05:03:00.671Z,8.80
2023-05-22T05:05:28.341Z,14.85
2023-05-22T05:07:56.197Z,8.38
2023-05-22T05:10:24.316Z,9.60
2023-05-22T05:12:52.084Z,14.25
2023-05-22T05:15:22.860Z,12.88
2023-05-22T05:17:50.680Z,8.60
2023-05-22T05:20:18.665Z,12.05
2023-05-22T05:22:46.424Z,8.20
2023-05-22T05:25:14.137Z,8.70
2023-05-22T05:27:41.680Z,6.10
2023-05-22T05:30:10.745Z,6.90
2023-05-22T05:32:39.827Z,6.70
2023-05-22T05:35:07.893Z,8.07
2023-05-22T05:37:35.455Z,8.77
2023-05-22T05:40:03.998Z,6.40
2023-05-22T05:42:31.594Z,7.88
2023-05-22T05:44:59.137Z,9.55
2023-05-22T05:47:26.728Z,7.93
2023-05-22T05:49:55.951Z,8.98
2023-05-22T05:52:24.804Z,7.80
2023-05-22T05:54:52.554Z,9.05
2023-05-22T05:57:20.076Z,4.88
2023-05-22T05:59:47.568Z,7.40
2023-05-22T06:02:15.165Z,7.75
2023-05-22T06:04:43.134Z,10.63
2023-05-22T06:07:13.635Z,4.45
2023-05-22T06:09:41.198Z,4.00
2023-05-22T06:12:12.458Z,6.40
2023-05-22T06:14:40.613Z,6.53
2023-05-22T06:17:09.185Z,6.90
2023-05-22T06:19:36.787Z,5.60
2023-05-22T06:22:04.376Z,3.00
2023-05-22T06:24:33.892Z,7.47
2023-05-22T06:27:01.556Z,6.95
2023-05-22T06:29:29.048Z,4.78
2023-05-22T06:31:56.726Z,4.90
2023-05-22T06:34:25.644Z,6.43
2023-05-22T06:36:53.279Z,4.10
2023-05-22T06:39:20.772Z,3.72
2023-05-22T06:41:49.597Z,6.55
2023-05-22T06:44:17.303Z,8.45
2023-05-22T06:46:45.062Z,2.97
2023-05-22T06:49:13.025Z,3.58
2023-05-22T06:51:40.686Z,4.80
2023-05-22T06:54:09.519Z,3.88
2023-05-22T06:56:37.641Z,8.52
2023-05-22T06:59:08.687Z,4.93
2023-05-22T07:01:43.899Z,8.73
2023-05-22T07:04:13.313Z,3.58
2023-05-22T07:06:41.510Z,2.72
2023-05-22T07:09:10.579Z,3.40
2023-05-22T07:11:38.356Z,6.85
2023-05-22T07:14:07.926Z,4.20
2023-05-22T07:16:36.850Z,3.13
2023-05-22T07:19:04.619Z,3.05
2023-05-22T07:21:35.779Z,2.25
2023-05-22T07:24:08.259Z,3.50
2023-05-22T07:26:36.114Z,4.70
2023-05-22T07:29:04.047Z,4.38
2023-05-22T07:31:34.404Z,3.58
2023-05-22T07:34:02.230Z,4.50
2023-05-22T07:36:29.774Z,4.80
2023-05-22T07:38:57.400Z,6.38
2023-05-22T07:41:27.219Z,3.65
2023-05-22T07:43:54.783Z,5.55
2023-05-22T07:46:22.488Z,2.33
2023-05-22T07:48:52.141Z,7.53
2023-05-22T07:51:19.861Z,6.55
2023-05-22T07:53:49.156Z,3.03
2023-05-22T07:56:17.775Z,2.65
2023-05-22T07:58:48.126Z,1.98
2023-05-22T08:01:16.658Z,2.10
2023-05-22T08:03:44.304Z,7.72
2023-05-22T08:06:15.571Z,5.95
2023-05-22T08:08:43.273Z,2.03
2023-05-22T08:11:10.916Z,3.13
2023-05-22T08:13:39.080Z,2.63
2023-05-22T08:16:07.168Z,5.68
2023-05-22T08:18:35.088Z,2.60
2023-05-22T08:21:02.700Z,2.03
2023-05-22T08:23:31.539Z,2.92
2023-05-22T08:25:59.234Z,5.80
2023-05-22T08:28:27.072Z,5.13
2023-05-22T08:30:55.192Z,4.80
2023-05-22T08:33:23.050Z,3.33
2023-05-22T08:35:50.931Z,4.38
2023-05-22T08:38:18.614Z,2.83
2023-05-22T08:40:48.689Z,10.40
2023-05-22T08:43:17.130Z,5.07
2023-05-22T08:45:47.965Z,4.07
2023-05-22T08:48:17.480Z,3.60
2023-05-22T08:50:46.147Z,4.93
2023-05-22T08:53:16.890Z,5.18
2023-05-22T08:55:45.075Z,6.28
2023-05-22T08:58:14.401Z,5.13
2023-05-22T09:00:42.195Z,2.15
2023-05-22T09:03:10.422Z,1.92
2023-05-22T09:05:39.233Z,7.32
2023-05-22T09:08:19.172Z,3.50
2023-05-22T09:10:51.661Z,3.35
2023-05-22T09:13:28.238Z,5.25
2023-05-22T09:15:59.464Z,4.60
2023-05-22T09:18:28.522Z,3.38
2023-05-22T09:20:58.605Z,2.95
2023-05-22T09:23:28.327Z,2.58
2023-05-22T09:25:56.401Z,4.05
2023-05-22T09:28:24.028Z,5.75
2023-05-22T09:30:54.519Z,1.20
2023-05-22T09:33:23.558Z,2.08
2023-05-22T09:35:52.842Z,4.30
2023-05-22T09:38:20.821Z,9.32
2023-05-22T09:40:48.399Z,3.63
2023-05-22T09:43:18.721Z,2.50
2023-05-22T09:45:46.495Z,4.05
2023-05-22T09:48:17.743Z,1.90
2023-05-22T09:50:49.671Z,4.75
2023-05-22T09:53:20.847Z,3.30
2023-05-22T09:55:49.700Z,1.92
2023-05-22T09:58:19.601Z,3.67
2023-05-22T10:00:47.619Z,4.07
2023-05-22T10:03:17.931Z,5.00
2023-05-22T10:05:47.895Z,7.35
2023-05-22T10:08:17.399Z,1.63
2023-05-22T10:10:48.747Z,6.65
2023-05-22T10:13:16.789Z,5.30
2023-05-22T10:15:44.439Z,4.88
2023-05-22T10:18:13.057Z,4.68
2023-05-22T10:20:42.177Z,5.50
2023-05-22T10:23:10.948Z,3.28
2023-05-22T10:25:39.203Z,3.20
2023-05-22T10:28:07.260Z,6.93
2023-05-22T10:30:37.774Z,4.60
2023-05-22T10:33:08.964Z,8.50
2023-05-22T10:35:40.107Z,3.40
2023-05-22T10:38:18.386Z,4.45
2023-05-22T10:40:46.850Z,1.80
2023-05-22T10:43:14.497Z,1.98
2023-05-22T10:45:43.959Z,5.65
2023-05-22T10:48:13.512Z,7.15
2023-05-22T10:50:41.842Z,3.70
2023-05-22T10:53:24.094Z,2.20
2023-05-22T10:55:52.069Z,8.27
2023-05-22T10:58:20.007Z,3.25
2023-05-22T11:00:47.663Z,2.80
2023-05-22T11:03:18.384Z,5.25
2023-05-22T11:05:53.433Z,2.65
2023-05-22T11:08:39.429Z,2.70
2023-05-22T11:11:15.941Z,14.75
2023-05-22T11:13:44.624Z,5.72
2023-05-22T11:16:12.385Z,7.95
2023-05-22T11:18:40.013Z,6.35
2023-05-22T11:21:10.490Z,6.03
2023-05-22T11:23:39.574Z,2.60
2023-05-22T11:26:20.246Z,4.07
2023-05-22T11:28:51.828Z,3.20
2023-05-22T11:31:19.914Z,5.10
2023-05-22T11:33:48.375Z,9.38
2023-05-22T11:36:18.757Z,5.72
2023-05-22T11:38:50.133Z,4.68
2023-05-22T11:41:19.297Z,2.25
2023-05-22T11:43:46.784Z,5.10
2023-05-22T11:46:15.024Z,4.80
2023-05-22T11:48:43.013Z,2.97
2023-05-22T11:51:10.701Z,5.22
2023-05-22T11:53:38.464Z,3.63
2023-05-22T11:56:07.498Z,1.83
2023-05-22T11:58:35.019Z,6.65
2023-05-22T12:01:03.300Z,9.10
2023-05-22T12:03:31.346Z,4.35
2023-05-22T12:06:00.001Z,8.55
2023-05-22T12:08:27.709Z,6.13
2023-05-22T12:10:55.467Z,4.10
2023-05-22T12:13:28.012Z,5.28
2023-05-22T12:15:56.412Z,2.13
2023-05-22T12:18:24.032Z,5.20
2023-05-22T12:20:55.856Z,4.55
2023-05-22T12:23:24.367Z,7.53
2023-05-22T12:25:58.729Z,6.82
2023-05-22T12:28:27.946Z,3.03
2023-05-22T12:30:56.549Z,10.00
2023-05-22T12:33:28.412Z,4.13
2023-05-22T12:35:58.595Z,4.00
2023-05-22T12:38:27.526Z,6.25
2023-05-22T12:40:56.610Z,3.83
2023-05-22T12:43:25.176Z,4.20
2023-05-22T12:45:54.154Z,4.60
2023-05-22T12:48:21.852Z,4.20
2023-05-22T12:50:49.539Z,8.18
2023-05-22T12:53:17.091Z,4.63
2023-05-22T12:55:44.766Z,4.45
2023-05-22T12:58:15.205Z,6.13
2023-05-22T13:00:42.998Z,4.85
2023-05-22T13:06:03.374Z,8.85
2023-05-22T13:08:31.416Z,3.72
2023-05-22T13:10:58.930Z,6.78
2023-05-22T13:13:27.124Z,3.95
2023-05-22T13:15:54.962Z,3.90
2023-05-22T13:18:24.044Z,4.55
2023-05-22T13:20:51.998Z,7.72
2023-05-22T13:23:19.557Z,4.93
2023-05-22T13:25:47.046Z,3.33
2023-05-22T13:28:14.635Z,4.60
2023-05-22T13:30:42.423Z,9.10
2023-05-22T13:33:12.357Z,7.40
2023-05-22T13:35:41.523Z,6.22
2023-05-22T13:38:09.356Z,2.83
2023-05-22T13:40:37.136Z,5.28
2023-05-22T13:43:04.845Z,4.40
2023-05-22T13:45:32.490Z,1.98
2023-05-22T13:48:00.213Z,2.25
2023-05-22T13:50:28.638Z,3.13
2023-05-22T13:52:57.537Z,2.65
2023-05-22T13:55:25.119Z,13.73
2023-05-22T13:57:52.848Z,3.60
2023-05-22T14:00:20.984Z,3.33
2023-05-22T14:02:48.736Z,2.90
2023-05-22T14:05:16.483Z,3.70
2023-05-22T14:07:44.032Z,8.32
2023-05-22T14:10:13.270Z,7.15
2023-05-22T14:12:43.311Z,4.80
2023-05-22T14:15:11.321Z,3.38
2023-05-22T14:17:39.213Z,3.80
2023-05-22T14:20:07.446Z,3.70
2023-05-22T14:22:47.963Z,5.93
2023-05-22T14:25:26.192Z,3.83
2023-05-22T14:27:53.840Z,5.40
2023-05-22T14:30:25.603Z,9.23
2023-05-22T14:32:53.762Z,7.45
2023-05-22T14:35:21.540Z,4.45
2023-05-22T14:37:49.266Z,10.88
2023-05-22T14:40:17.004Z,4.50
2023-05-22T14:42:47.083Z,6.82
2023-05-22T14:45:14.728Z,2.80
2023-05-22T14:47:43.313Z,6.88
2023-05-22T14:50:19.008Z,4.35
2023-05-22T14:52:47.770Z,3.85
2023-05-22T14:55:15.492Z,4.38
2023-05-22T14:57:43.256Z,2.85
2023-05-22T15:00:13.143Z,3.47
2023-05-22T15:02:40.993Z,4.63
2023-05-22T15:05:09.621Z,4.18
2023-05-22T15:07:43.847Z,6.45
2023-05-22T15:10:12.874Z,7.57
2023-05-22T15:12:40.485Z,4.25
2023-05-22T15:15:08.616Z,4.60
2023-05-22T15:17:38.485Z,8.07
2023-05-22T15:20:07.604Z,6.65
2023-05-22T15:22:35.179Z,7.93
2023-05-22T15:25:06.348Z,6.00
2023-05-22T15:27:34.663Z,5.80
2023-05-22T15:30:02.545Z,2.95
2023-05-22T15:32:30.873Z,4.28
2023-05-22T15:35:00.474Z,4.03
2023-05-22T15:37:29.736Z,4.40
2023-05-22T15:39:59.067Z,5.93
2023-05-22T15:42:26.693Z,21.33
2023-05-22T15:44:54.430Z,4.72
2023-05-22T15:47:21.949Z,6.13
2023-05-22T15:49:49.944Z,3.90
2023-05-22T15:52:19.198Z,4.95
2023-05-22T15:54:47.219Z,8.07
2023-05-22T15:57:14.898Z,5.55
2023-05-22T15:59:42.560Z,4.50
2023-05-22T16:02:10.090Z,5.97
2023-05-22T16:04:37.754Z,7.30
2023-05-22T16:07:05.845Z,5.57
2023-05-22T16:09:36.140Z,5.32
2023-05-22T16:12:04.179Z,6.00
2023-05-22T16:14:31.877Z,5.90
2023-05-22T16:16:59.445Z,5.50
2023-05-22T16:19:30.430Z,8.27
2023-05-22T16:21:58.037Z,5.65
2023-05-22T16:24:26.060Z,4.47
2023-05-22T16:26:56.246Z,6.32
2023-05-22T16:29:24.367Z,4.28
2023-05-22T16:31:52.352Z,5.00
2023-05-22T16:34:20.109Z,4.50
2023-05-22T16:36:47.679Z,7.38
2023-05-22T16:39:15.748Z,5.32
2023-05-22T16:41:43.540Z,6.50
2023-05-22T16:44:12.395Z,7.65
2023-05-22T16:46:39.991Z,7.78
2023-05-22T16:49:07.958Z,5.53
2023-05-22T16:51:36.870Z,3.83
2023-05-22T16:54:04.452Z,3.55
2023-05-22T16:56:33.096Z,5.32
2023-05-22T16:59:00.932Z,4.05
2023-05-22T17:01:30.057Z,4.45
2023-05-22T17:03:57.613Z,9.13
2023-05-22T17:06:25.205Z,7.03
2023-05-22T17:08:52.720Z,7.82
2023-05-22T17:11:21.746Z,4.90
2023-05-22T17:13:49.280Z,10.15
2023-05-22T17:16:16.848Z,7.65
2023-05-22T17:18:46.486Z,3.83
2023-05-22T17:21:14.658Z,7.00
2023-05-22T17:23:42.227Z,4.35
2023-05-22T17:26:09.813Z,8.13
2023-05-22T17:28:37.704Z,7.55
2023-05-22T17:31:06.379Z,6.28
2023-05-22T17:33:34.062Z,5.55
2023-05-22T17:36:03.020Z,5.75
2023-05-22T17:38:30.736Z,4.32
2023-05-22T17:41:02.047Z,6.05
2023-05-22T17:43:29.594Z,5.63
2023-05-22T17:45:57.342Z,6.13
2023-05-22T17:48:27.202Z,7.00
2023-05-22T17:50:55.457Z,6.22
2023-05-22T17:53:24.656Z,5.20
2023-05-22T17:55:53.265Z,10.13
2023-05-22T17:58:21.228Z,7.40
2023-05-22T18:00:49.247Z,8.63
2023-05-22T18:03:20.354Z,4.80
2023-05-22T18:05:48.543Z,5.97
2023-05-22T18:08:16.265Z,4.55
2023-05-22T18:10:46.663Z,5.47
2023-05-22T18:13:14.260Z,5.45
2023-05-22T18:15:41.872Z,6.90
2023-05-22T18:18:12.110Z,5.63
2023-05-22T18:20:40.709Z,9.85
2023-05-22T18:23:10.520Z,7.50
2023-05-22T18:25:38.517Z,8.02
2023-05-22T18:28:08.253Z,6.40
2023-05-22T18:30:36.421Z,6.25
2023-05-22T18:33:04.386Z,7.15
2023-05-22T18:35:32.327Z,7.85
2023-05-22T18:38:00.340Z,9.65
2023-05-22T18:40:28.339Z,5.70
2023-05-22T18:42:59.140Z,6.50
2023-05-22T18:45:28.815Z,8.55
2023-05-22T18:47:56.636Z,6.60
2023-05-22T18:50:24.485Z,6.45
2023-05-22T18:52:52.118Z,5.55
2023-05-22T18:55:19.850Z,5.78
2023-05-22T18:57:55.705Z,7.70
2023-05-22T19:00:23.392Z,5.80
2023-05-22T19:02:53.888Z,5.38
2023-05-22T19:05:21.728Z,7.40
2023-05-22T19:07:52.144Z,6.93
2023-05-22T19:10:29.391Z,7.80
2023-05-22T19:12:57.008Z,7.90
2023-05-22T19:15:28.500Z,12.57
2023-05-22T19:17:57.791Z,10.13
2023-05-22T19:20:25.764Z,10.68
2023-05-22T19:22:54.024Z,5.38
2023-05-22T19:25:22.207Z,9.77
2023-05-22T19:27:49.984Z,12.50
2023-05-22T19:30:18.981Z,10.57
2023-05-22T19:32:46.777Z,8.77
2023-05-22T19:35:16.198Z,7.65
2023-05-22T19:37:43.729Z,10.95
2023-05-22T19:40:12.397Z,7.30
2023-05-22T19:42:40.125Z,7.25
2023-05-22T19:45:08.425Z,8.35
2023-05-22T19:47:36.308Z,11.55
2023-05-22T19:50:04.852Z,8.20
2023-05-22T19:52:33.795Z,8.68
2023-05-22T19:55:01.925Z,12.77
2023-05-22T19:57:29.904Z,7.88
2023-05-22T19:59:58.348Z,17.67
2023-05-22T20:02:26.259Z,10.13
2023-05-22T20:04:54.739Z,12.02
2023-05-22T20:07:22.361Z,14.20
2023-05-22T20:09:51.416Z,13.52
2023-05-22T20:12:19.450Z,12.02
2023-05-22T20:14:47.203Z,13.77
2023-05-22T20:17:14.889Z,15.15
2023-05-22T20:19:44.993Z,14.90
2023-05-22T20:22:12.650Z,12.80
2023-05-22T20:24:40.163Z,15.88
2023-05-22T20:27:12.160Z,10.73
2023-05-22T20:29:50.090Z,15.23
2023-05-22T20:32:17.749Z,13.25
2023-05-22T20:34:46.479Z,12.60
2023-05-22T20:37:14.456Z,16.85
2023-05-22T20:39:42.753Z,14.40
2023-05-22T20:42:13.039Z,11.90
2023-05-22T20:44:43.710Z,12.32
2023-05-22T20:47:11.408Z,11.13
2023-05-22T20:49:40.408Z,18.92
2023-05-22T20:52:10.050Z,9.90
2023-05-22T20:54:38.190Z,12.88
2023-05-22T20:57:06.158Z,10.55
2023-05-22T20:59:37.616Z,10.85
2023-05-22T21:02:05.600Z,12.25
2023-05-22T21:04:33.305Z,13.32
2023-05-22T21:07:00.953Z,18.13
2023-05-22T21:09:29.707Z,15.93
2023-05-22T21:11:57.421Z,13.27
2023-05-22T21:14:25.338Z,17.05
2023-05-22T21:17:00.390Z,15.65
2023-05-22T21:19:28.985Z,11.20
2023-05-22T21:21:59.019Z,9.75
2023-05-22T21:24:27.483Z,9.52
2023-05-22T21:26:55.681Z,8.80
2023-05-22T21:29:23.413Z,9.48
2023-05-22T21:31:51.024Z,10.55
2023-05-22T21:34:20.392Z,14.38
2023-05-22T21:36:48.486Z,10.85
2023-05-22T21:39:16.443Z,9.75
2023-05-22T21:41:44.077Z,8.35
2023-05-22T21:44:11.689Z,9.15
2023-05-22T21:46:39.657Z,9.75
2023-05-22T21:49:09.601Z,14.52
2023-05-22T21:51:38.775Z,7.55
2023-05-22T21:54:06.842Z,7.60
2023-05-22T21:56:34.386Z,7.15
2023-05-22T21:59:04.478Z,11.27
2023-05-22T22:01:32.437Z,12.27
2023-05-22T22:04:00.682Z,7.00
2023-05-22T22:06:28.841Z,8.68
2023-05-22T22:08:59.739Z,6.88
2023-05-22T22:11:27.903Z,8.50
2023-05-22T22:13:55.561Z,9.43
2023-05-22T22:16:23.489Z,12.95
2023-05-22T22:18:51.337Z,7.53
2023-05-22T22:21:19.146Z,7.20
2023-05-22T22:23:47.686Z,10.98
2023-05-22T22:26:17.119Z,8.25
2023-05-22T22:28:44.648Z,10.35
2023-05-22T22:31:12.853Z,8.27
2023-05-22T22:33:45.014Z,8.18
2023-05-22T22:36:12.596Z,10.13
2023-05-22T22:38:40.126Z,5.82
2023-05-22T22:41:09.344Z,7.72
2023-05-22T22:43:38.214Z,7.30
2023-05-22T22:46:05.958Z,8.18
2023-05-22T22:48:33.812Z,5.85
2023-05-22T22:51:04.851Z,9.32
2023-05-22T22:53:32.313Z,6.68
2023-05-22T22:56:00.165Z,8.10
2023-05-22T22:58:27.691Z,9.35
2023-05-22T23:00:56.576Z,7.00
2023-05-22T23:03:24.224Z,8.63
2023-05-22T23:05:51.817Z,7.97
2023-05-22T23:08:19.376Z,7.40
2023-05-22T23:10:47.245Z,6.88
2023-05-22T23:13:14.802Z,5.20
2023-05-22T23:15:46.105Z,4.85
2023-05-22T23:18:15.522Z,5.35
2023-05-22T23:20:43.850Z,5.38
2023-05-22T23:23:12.183Z,9.35
2023-05-22T23:25:40.380Z,8.88
2023-05-22T23:28:08.972Z,8.60
2023-05-22T23:30:36.476Z,7.80
2023-05-22T23:33:06.182Z,5.25
2023-05-22T23:35:35.429Z,7.63
2023-05-22T23:38:02.917Z,6.57
2023-05-22T23:40:30.664Z,10.25
2023-05-22T23:42:58.197Z,6.30
2023-05-22T23:45:25.778Z,4.72
2023-05-22T23:47:53.357Z,4.38
2023-05-22T23:50:20.956Z,7.30
2023-05-22T23:52:49.748Z,6.32
2023-05-22T23:55:17.332Z,8.07
2023-05-22T23:57:53.542Z,7.93
